45.5°F
Current conditions from King Hill
Updated every 5 minutes
 
  Friday October 31, 2014

Station Historical Data
Daily Summary for January 4, 2012 Units:  Metric    English   Both
« Previous Day
Next Day »
Daily Weekly Monthly Yearly Custom
  High: Low: Average:
Temperature: -7.7 °C -20.3 °C -13.9 °C
Dew Point: -12.7 °C -23.1 °C -18.2 °C
Humidity: 79% 63% 71%
Wind Speed: 16.1km/h 0km/h 9.2km/h
Wind Gust: 30.6km/h - -
Wind- - SSW
Pressure: 1021.9 hPa 1009 hPa -
Precipitation: 0 mm    
Historical Graphs
 
 
Tabular Data for January 4, 2012
Time Temperature Dew Point Pressure Wind Wind Speed Wind Gust Humidity Daily Rainfall
00:04 -18 °C -21.3 °C 1021.2 hPa Calm   4.8 km/h 75% 0 mm
00:09 -18 °C -21.3 °C 1021.2 hPa Calm   4.8 km/h 75% 0 mm
00:14 -18 °C -21.3 °C 1021.2 hPa Calm   4.8 km/h 75% 0 mm
00:20 -18.1 °C -21.4 °C 1021.2 hPa Calm   6.4 km/h 75% 0 mm
00:30 -18.1 °C -21.3 °C 1021.2 hPa Calm   6.4 km/h 76% 0 mm
00:34 -18.1 °C -21.4 °C 1021.2 hPa Calm   4.8 km/h 75% 0 mm
00:40 -18.2 °C -21.5 °C 1021.2 hPa Calm   8 km/h 75% 0 mm
00:49 -18.2 °C -21.3 °C 1021.2 hPa Calm   4.8 km/h 76% 0 mm
00:55 -18.2 °C -21.3 °C 1021.2 hPa Calm   4.8 km/h 76% 0 mm
00:59 -18.2 °C -21.3 °C 1021.2 hPa Calm   1.6 km/h 76% 0 mm
01:04 -18.2 °C -21.3 °C 1021.2 hPa Calm   4.8 km/h 76% 0 mm
01:09 -18.2 °C -21.3 °C 1021.2 hPa Calm   4.8 km/h 76% 0 mm
01:15 -18.1 °C -21.3 °C 1021.2 hPa Calm   1.6 km/h 76% 0 mm
01:19 -18.1 °C -21.3 °C 1021.2 hPa Calm   3.2 km/h 76% 0 mm
01:24 -18 °C -21.1 °C 1021.2 hPa Calm   3.2 km/h 77% 0 mm
01:30 -17.9 °C -21.2 °C 1021.6 hPa Calm   3.2 km/h 76% 0 mm
01:35 -17.9 °C -20.9 °C 1021.6 hPa Calm   9.7 km/h 77% 0 mm
01:39 -17.8 °C -20.9 °C 1021.6 hPa Calm   9.7 km/h 77% 0 mm
01:45 -17.8 °C -20.8 °C 1021.6 hPa WNW 1.6 km/h 8 km/h 77% 0 mm
01:49 -17.7 °C -20.9 °C 1021.6 hPa Calm   11.3 km/h 76% 0 mm
01:54 -17.7 °C -21.1 °C 1021.6 hPa NNW 6.4 km/h 12.9 km/h 75% 0 mm
01:59 -17.7 °C -21.1 °C 1021.6 hPa NNW 1.6 km/h 12.9 km/h 75% 0 mm
02:04 -17.8 °C -21.1 °C 1021.6 hPa NW 3.2 km/h 9.7 km/h 75% 0 mm
02:09 -17.8 °C -21.1 °C 1021.6 hPa Calm   8 km/h 75% 0 mm
02:14 -17.8 °C -21.1 °C 1021.6 hPa Calm   3.2 km/h 75% 0 mm
02:19 -17.8 °C -21.1 °C 1021.6 hPa Calm   1.6 km/h 75% 0 mm
02:25 -17.8 °C -21.1 °C 1021.9 hPa NNW 1.6 km/h 6.4 km/h 75% 0 mm
02:34 -17.8 °C -21.1 °C 1021.9 hPa NW 1.6 km/h 9.7 km/h 75% 0 mm
02:39 -17.8 °C -21.1 °C 1021.9 hPa NNW 1.6 km/h 9.7 km/h 75% 0 mm
02:44 -17.8 °C -21.2 °C 1021.9 hPa North 1.6 km/h 9.7 km/h 75% 0 mm
02:49 -17.9 °C -21.3 °C 1021.6 hPa North 1.6 km/h 8 km/h 75% 0 mm
02:54 -18.1 °C -21.6 °C 1021.6 hPa Calm   8 km/h 74% 0 mm
02:59 -18.2 °C -21.7 °C 1021.6 hPa Calm   6.4 km/h 74% 0 mm
03:04 -18.3 °C -21.8 °C 1021.2 hPa Calm   3.2 km/h 74% 0 mm
03:09 -18.4 °C -21.9 °C 1021.6 hPa Calm   3.2 km/h 74% 0 mm
03:14 -18.6 °C -22.1 °C 1021.6 hPa Calm   1.6 km/h 74% 0 mm
03:19 -18.7 °C -22 °C 1021.6 hPa Calm   3.2 km/h 75% 0 mm
03:25 -18.7 °C -22.1 °C 1021.6 hPa Calm   4.8 km/h 75% 0 mm
03:29 -18.8 °C -22.1 °C 1021.6 hPa Calm   4.8 km/h 75% 0 mm
03:34 -18.8 °C -22.3 °C 1021.6 hPa Calm   4.8 km/h 74% 0 mm
03:40 -18.8 °C -22.2 °C 1021.6 hPa Calm   3.2 km/h 75% 0 mm
03:44 -18.9 °C -22.2 °C 1021.6 hPa Calm     75% 0 mm
03:50 -18.9 °C -22.3 °C 1021.2 hPa Calm     75% 0 mm
03:54 -19 °C -22.3 °C 1021.2 hPa Calm     75% 0 mm
03:59 -19.1 °C -22.4 °C 1021.2 hPa Calm     75% 0 mm
04:04 -19.2 °C -22.5 °C 1021.2 hPa Calm     75% 0 mm
04:09 -19.3 °C -22.6 °C 1021.6 hPa Calm     75% 0 mm
04:14 -19.3 °C -22.5 °C 1021.2 hPa Calm     76% 0 mm
04:20 -19.3 °C -22.3 °C 1021.2 hPa Calm     77% 0 mm
04:24 -19.2 °C -22.2 °C 1021.2 hPa Calm     77% 0 mm
04:29 -19.1 °C -22.1 °C 1021.2 hPa Calm     77% 0 mm
04:35 -19.1 °C -22.1 °C 1021.2 hPa Calm     77% 0 mm
04:40 -19 °C -22 °C 1021.2 hPa Calm     77% 0 mm
04:49 -18.9 °C -21.9 °C 1021.2 hPa Calm     77% 0 mm
04:54 -18.9 °C -21.9 °C 1021.2 hPa Calm     77% 0 mm
04:59 -18.9 °C -21.9 °C 1021.2 hPa Calm     77% 0 mm
05:04 -19.1 °C -22.1 °C 1021.2 hPa Calm     77% 0 mm
05:09 -19.1 °C -22.1 °C 1021.2 hPa Calm     77% 0 mm
05:14 -19.2 °C -22.2 °C 1021.2 hPa Calm     77% 0 mm
05:19 -19.3 °C -22.3 °C 1021.2 hPa Calm     77% 0 mm
05:24 -19.3 °C -22.3 °C 1020.9 hPa Calm     77% 0 mm
05:30 -19.4 °C -22.4 °C 1020.9 hPa Calm     77% 0 mm
05:34 -19.5 °C -22.5 °C 1020.9 hPa Calm   3.2 km/h 77% 0 mm
05:39 -19.5 °C -22.5 °C 1020.9 hPa Calm   3.2 km/h 77% 0 mm
05:44 -19.6 °C -22.6 °C 1020.9 hPa Calm   3.2 km/h 77% 0 mm
05:49 -19.6 °C -22.4 °C 1021.2 hPa Calm   4.8 km/h 78% 0 mm
05:54 -19.6 °C -22.4 °C 1021.2 hPa Calm   4.8 km/h 78% 0 mm
05:59 -19.7 °C -22.5 °C 1020.9 hPa Calm     78% 0 mm
06:04 -19.7 °C -22.6 °C 1021.2 hPa Calm     78% 0 mm
06:09 -19.8 °C -22.6 °C 1020.9 hPa Calm     78% 0 mm
06:14 -19.8 °C -22.7 °C 1020.9 hPa Calm     78% 0 mm
06:19 -19.9 °C -22.8 °C 1020.9 hPa Calm     78% 0 mm
06:24 -20.1 °C -22.9 °C 1020.9 hPa Calm     78% 0 mm
06:29 -20.1 °C -22.9 °C 1020.9 hPa Calm     78% 0 mm
06:34 -20.2 °C -23 °C 1020.9 hPa Calm     78% 0 mm
06:39 -20.3 °C -23.1 °C 1020.9 hPa Calm     78% 0 mm
06:44 -20.3 °C -23.1 °C 1020.9 hPa Calm     78% 0 mm
06:49 -20.2 °C -23 °C 1020.9 hPa Calm     78% 0 mm
06:54 -20.1 °C -22.9 °C 1020.9 hPa Calm     78% 0 mm
06:59 -19.9 °C -22.8 °C 1020.9 hPa Calm     78% 0 mm
07:04 -19.8 °C -22.7 °C 1020.9 hPa Calm     78% 0 mm
07:09 -19.8 °C -22.6 °C 1020.9 hPa Calm     78% 0 mm
07:14 -19.7 °C -22.6 °C 1020.9 hPa Calm     78% 0 mm
07:19 -19.6 °C -22.4 °C 1020.9 hPa Calm     78% 0 mm
07:25 -19.6 °C -22.4 °C 1020.9 hPa Calm     78% 0 mm
07:29 -19.6 °C -22.4 °C 1020.9 hPa Calm     78% 0 mm
07:34 -19.5 °C -22.3 °C 1021.2 hPa Calm     78% 0 mm
07:39 -19.4 °C -22.3 °C 1021.2 hPa Calm     78% 0 mm
07:44 -19.4 °C -22.3 °C 1021.2 hPa Calm     78% 0 mm
07:49 -19.4 °C -22.3 °C 1021.2 hPa Calm     78% 0 mm
07:54 -19.4 °C -22.3 °C 1021.6 hPa Calm     78% 0 mm
07:59 -19.4 °C -22.3 °C 1021.6 hPa Calm     78% 0 mm
08:04 -19.3 °C -22.2 °C 1021.2 hPa Calm     78% 0 mm
08:09 -19.3 °C -22.2 °C 1021.2 hPa Calm     78% 0 mm
08:14 -19.3 °C -22.2 °C 1021.2 hPa Calm     78% 0 mm
08:19 -19.1 °C -22 °C 1021.2 hPa Calm     78% 0 mm
08:24 -19 °C -21.9 °C 1021.2 hPa Calm     78% 0 mm
08:29 -18.8 °C -21.5 °C 1021.2 hPa Calm   1.6 km/h 79% 0 mm
08:34 -18.5 °C -21.2 °C 1021.2 hPa Calm   4.8 km/h 79% 0 mm
08:40 -18.2 °C -20.9 °C 1021.2 hPa Calm   4.8 km/h 79% 0 mm
08:44 -18.1 °C -21 °C 1021.2 hPa SW 1.6 km/h 4.8 km/h 78% 0 mm
08:49 -17.9 °C -20.8 °C 1021.2 hPa SSW 1.6 km/h 8 km/h 78% 0 mm
08:54 -17.9 °C -20.8 °C 1021.2 hPa SSW 1.6 km/h 8 km/h 78% 0 mm
08:59 -17.8 °C -20.7 °C 1021.2 hPa SSW 1.6 km/h 8 km/h 78% 0 mm
09:04 -17.6 °C -20.5 °C 1021.2 hPa Calm   9.7 km/h 78% 0 mm
09:09 -17.5 °C -20.4 °C 1020.9 hPa SSW 1.6 km/h 9.7 km/h 78% 0 mm
09:14 -17.3 °C -20.2 °C 1020.5 hPa SSW 1.6 km/h 8 km/h 78% 0 mm
09:19 -17.2 °C -20.2 °C 1020.5 hPa SSW 3.2 km/h 8 km/h 78% 0 mm
09:24 -16.9 °C -19.8 °C 1020.5 hPa SSW 1.6 km/h 9.7 km/h 78% 0 mm
09:29 -16.4 °C -19.6 °C 1020.5 hPa SSW 6.4 km/h 11.3 km/h 77% 0 mm
09:34 -16.3 °C -19.5 °C 1020.2 hPa SSW 6.4 km/h 12.9 km/h 76% 0 mm
09:39 -16.2 °C -19.4 °C 1020.2 hPa South 1.6 km/h 12.9 km/h 76% 0 mm
09:45 -16.2 °C -19.4 °C 1020.2 hPa SSW 3.2 km/h 11.3 km/h 76% 0 mm
09:49 -16.2 °C -19.4 °C 1019.9 hPa SSW 1.6 km/h 11.3 km/h 76% 0 mm
09:54 -16.1 °C -19.3 °C 1019.9 hPa SSW 4.8 km/h 11.3 km/h 76% 0 mm
09:59 -15.9 °C -19 °C 1019.9 hPa SSW 6.4 km/h 11.3 km/h 77% 0 mm
10:04 -15.9 °C -19.2 °C 1019.9 hPa SSW 4.8 km/h 11.3 km/h 76% 0 mm
10:09 -15.8 °C -18.9 °C 1019.9 hPa SSW 6.4 km/h 14.5 km/h 77% 0 mm
10:14 -15.6 °C -18.7 °C 1019.5 hPa SSW 3.2 km/h 14.5 km/h 77% 0 mm
10:19 -15.4 °C -18.6 °C 1019.2 hPa SSW 6.4 km/h 11.3 km/h 77% 0 mm
10:24 -15.2 °C -18.4 °C 1019.2 hPa SW 8 km/h 11.3 km/h 76% 0 mm
10:30 -15.1 °C -18.3 °C 1018.8 hPa SSW 8 km/h 14.5 km/h 76% 0 mm
10:39 -15.1 °C -18.3 °C 1018.5 hPa SSW 3.2 km/h 14.5 km/h 76% 0 mm
10:44 -14.9 °C -18.2 °C 1018.5 hPa SSW 4.8 km/h 14.5 km/h 76% 0 mm
10:49 -14.9 °C -18.2 °C 1018.5 hPa SSW 8 km/h 14.5 km/h 76% 0 mm
10:54 -14.8 °C -18.1 °C 1018.2 hPa SW 3.2 km/h 17.7 km/h 76% 0 mm
10:59 -14.6 °C -17.9 °C 1018.2 hPa SSW 6.4 km/h 17.7 km/h 76% 0 mm
11:04 -14.4 °C -17.8 °C 1018.2 hPa SSW 6.4 km/h 16.1 km/h 75% 0 mm
11:09 -14.3 °C -17.9 °C 1018.2 hPa SSW 9.7 km/h 19.3 km/h 74% 0 mm
11:14 -13.9 °C -17.5 °C 1018.2 hPa South 9.7 km/h 19.3 km/h 74% 0 mm
11:19 -13.7 °C -17.5 °C 1017.8 hPa SSW 8 km/h 19.3 km/h 73% 0 mm
11:24 -13.9 °C -17.8 °C 1017.8 hPa SSW 8 km/h 19.3 km/h 72% 0 mm
11:29 -14 °C -17.9 °C 1017.8 hPa SSW 6.4 km/h 17.7 km/h 72% 0 mm
11:34 -13.8 °C -17.6 °C 1017.5 hPa SSW 4.8 km/h 17.7 km/h 73% 0 mm
11:40 -13.8 °C -17.6 °C 1017.2 hPa SSW 8 km/h 20.9 km/h 73% 0 mm
11:44 -13.7 °C -17.7 °C 1016.8 hPa SSW 8 km/h 20.9 km/h 72% 0 mm
11:49 -13.7 °C -17.6 °C 1016.8 hPa SW 8 km/h 22.5 km/h 72% 0 mm
11:54 -13.6 °C -17.6 °C 1016.8 hPa SSW 4.8 km/h 22.5 km/h 72% 0 mm
11:59 -13.4 °C -17.4 °C 1016.8 hPa SW 3.2 km/h 14.5 km/h 72% 0 mm
12:04 -13.4 °C -17.6 °C 1016.8 hPa SSW 8 km/h 14.5 km/h 71% 0 mm
12:09 -13.4 °C -17.6 °C 1016.8 hPa SSW 6.4 km/h 14.5 km/h 71% 0 mm
12:14 -13.3 °C -17.3 °C 1016.8 hPa SSW 6.4 km/h 12.9 km/h 72% 0 mm
12:19 -13.2 °C -17.3 °C 1016.5 hPa SSW 6.4 km/h 12.9 km/h 71% 0 mm
12:24 -13.2 °C -17.5 °C 1016.5 hPa SSW 6.4 km/h 14.5 km/h 70% 0 mm
12:30 -13.1 °C -17.4 °C 1016.1 hPa SSW 8 km/h 14.5 km/h 70% 0 mm
12:34 -12.9 °C -17.3 °C 1016.1 hPa SW 6.4 km/h 14.5 km/h 70% 0 mm
12:39 -12.7 °C -17.1 °C 1016.1 hPa SW 6.4 km/h 14.5 km/h 70% 0 mm
12:44 -12.6 °C -17.1 °C 1016.1 hPa SW 3.2 km/h 12.9 km/h 69% 0 mm
12:49 -12.7 °C -17.3 °C 1016.1 hPa SSW 8 km/h 12.9 km/h 68% 0 mm
12:54 -12.6 °C -17.3 °C 1015.8 hPa SSW 8 km/h 12.9 km/h 68% 0 mm
12:59 -12.6 °C -17.2 °C 1015.8 hPa SW 9.7 km/h 14.5 km/h 68% 0 mm
13:04 -12.5 °C -17.2 °C 1015.8 hPa SW 9.7 km/h 19.3 km/h 68% 0 mm
13:09 -12.3 °C -17 °C 1015.5 hPa SSW 8 km/h 19.3 km/h 68% 0 mm
13:14 -12.3 °C -17 °C 1015.5 hPa SSW 1.6 km/h 12.9 km/h 68% 0 mm
13:19 -12.2 °C -17.1 °C 1015.1 hPa South 4.8 km/h 16.1 km/h 67% 0 mm
13:25 -12.2 °C -17.1 °C 1015.1 hPa SSW 8 km/h 16.1 km/h 67% 0 mm
13:34 -12.1 °C -16.9 °C 1015.1 hPa SSW 8 km/h 16.1 km/h 67% 0 mm
13:39 -12.1 °C -17.1 °C 1015.1 hPa SSW 8 km/h 19.3 km/h 66% 0 mm
13:44 -12 °C -17.1 °C 1015.1 hPa SW 11.3 km/h 20.9 km/h 66% 0 mm
13:49 -11.8 °C -16.9 °C 1015.1 hPa SSW 6.4 km/h 20.9 km/h 66% 0 mm
13:54 -11.8 °C -17.1 °C 1015.1 hPa SSW 9.7 km/h 20.9 km/h 65% 0 mm
13:59 -11.7 °C -16.9 °C 1014.8 hPa SSW 9.7 km/h 20.9 km/h 65% 0 mm
14:04 -11.6 °C -17.1 °C 1014.8 hPa SSW 11.3 km/h 27.4 km/h 64% 0 mm
14:09 -11.6 °C -17 °C 1014.8 hPa SSW 8 km/h 27.4 km/h 64% 0 mm
14:14 -11.5 °C -16.9 °C 1014.4 hPa SSW 8 km/h 25.7 km/h 64% 0 mm
14:19 -11.4 °C -17.1 °C 1014.4 hPa SSW 9.7 km/h 25.7 km/h 63% 0 mm
14:24 -11.4 °C -16.8 °C 1014.4 hPa SSW 8 km/h 16.1 km/h 64% 0 mm
14:30 -11.3 °C -17 °C 1014.4 hPa SSW 9.7 km/h 22.5 km/h 63% 0 mm
14:35 -11.3 °C -16.7 °C 1014.4 hPa SSW 6.4 km/h 22.5 km/h 64% 0 mm
14:44 -11.2 °C -16.6 °C 1014.4 hPa SSW 8 km/h 29 km/h 64% 0 mm
14:49 -11.2 °C -16.6 °C 1014.1 hPa SSW 9.7 km/h 29 km/h 64% 0 mm
14:54 -11.2 °C -16.7 °C 1014.1 hPa SSW 8 km/h 20.9 km/h 64% 0 mm
14:59 -11.2 °C -16.6 °C 1014.1 hPa SSW 9.7 km/h 24.1 km/h 64% 0 mm
15:04 -11.1 °C -16.6 °C 1014.4 hPa SSW 9.7 km/h 24.1 km/h 64% 0 mm
15:09 -11.1 °C -16.6 °C 1014.1 hPa SSW 11.3 km/h 22.5 km/h 64% 0 mm
15:14 -11.1 °C -16.6 °C 1014.1 hPa SSW 11.3 km/h 22.5 km/h 64% 0 mm
15:19 -11.1 °C -16.3 °C 1014.1 hPa SSW 11.3 km/h 22.5 km/h 65% 0 mm
15:24 -11 °C -16.3 °C 1013.8 hPa SSW 9.7 km/h 20.9 km/h 65% 0 mm
15:29 -11 °C -16.3 °C 1013.8 hPa SW 11.3 km/h 20.9 km/h 65% 0 mm
15:34 -10.8 °C -16.3 °C 1013.8 hPa SSW 11.3 km/h 20.9 km/h 64% 0 mm
15:39 -10.7 °C -16.2 °C 1013.8 hPa SSW 11.3 km/h 22.5 km/h 64% 0 mm
15:44 -10.7 °C -16.2 °C 1013.8 hPa SSW 11.3 km/h 22.5 km/h 64% 0 mm
15:49 -10.7 °C -16.2 °C 1013.8 hPa SW 12.9 km/h 24.1 km/h 64% 0 mm
15:54 -10.7 °C -16.2 °C 1013.4 hPa SSW 12.9 km/h 24.1 km/h 64% 0 mm
15:59 -10.7 °C -15.9 °C 1013.4 hPa SSW 12.9 km/h 24.1 km/h 65% 0 mm
16:04 -10.7 °C -15.9 °C 1013.4 hPa SSW 9.7 km/h 24.1 km/h 65% 0 mm
16:09 -10.7 °C -15.9 °C 1013.1 hPa SSW 14.5 km/h 24.1 km/h 65% 0 mm
16:14 -10.6 °C -15.7 °C 1013.1 hPa SSW 11.3 km/h 24.1 km/h 66% 0 mm
16:20 -10.6 °C -15.9 °C 1013.1 hPa SSW 11.3 km/h 27.4 km/h 65% 0 mm
16:29 -10.4 °C -15.8 °C 1012.8 hPa SSW 12.9 km/h 22.5 km/h 65% 0 mm
16:34 -10.3 °C -15.7 °C 1012.8 hPa SSW 12.9 km/h 25.7 km/h 65% 0 mm
16:39 -10.3 °C -15.6 °C 1012.8 hPa SSW 14.5 km/h 27.4 km/h 65% 0 mm
16:44 -10.3 °C -15.6 °C 1013.1 hPa SW 12.9 km/h 27.4 km/h 65% 0 mm
16:49 -10.2 °C -15.7 °C 1013.1 hPa SW 12.9 km/h 24.1 km/h 64% 0 mm
16:54 -10.2 °C -15.7 °C 1013.1 hPa SW 12.9 km/h 24.1 km/h 64% 0 mm
16:59 -10.1 °C -15.4 °C 1012.8 hPa SSW 12.9 km/h 24.1 km/h 65% 0 mm
17:04 -10.1 °C -15.4 °C 1012.8 hPa SSW 12.9 km/h 24.1 km/h 65% 0 mm
17:09 -10 °C -15.5 °C 1012.8 hPa SSW 14.5 km/h 22.5 km/h 64% 0 mm
17:14 -10 °C -15.5 °C 1013.1 hPa SW 16.1 km/h 29 km/h 64% 0 mm
17:19 -9.9 °C -15.4 °C 1013.1 hPa SW 8 km/h 29 km/h 64% 0 mm
17:25 -9.9 °C -15.4 °C 1012.8 hPa SW 12.9 km/h 25.7 km/h 64% 0 mm
17:34 -9.9 °C -15.4 °C 1012.8 hPa SSW 6.4 km/h 25.7 km/h 64% 0 mm
17:39 -9.8 °C -15.6 °C 1012.8 hPa SSW 8 km/h 27.4 km/h 63% 0 mm
17:44 -9.8 °C -15.6 °C 1012.8 hPa SW 12.9 km/h 27.4 km/h 63% 0 mm
17:49 -9.8 °C -15.5 °C 1012.8 hPa SSW 12.9 km/h 25.7 km/h 63% 0 mm
17:54 -9.7 °C -15.4 °C 1012.8 hPa SSW 14.5 km/h 27.4 km/h 63% 0 mm
17:59 -9.7 °C -15.4 °C 1012.4 hPa SSW 9.7 km/h 27.4 km/h 63% 0 mm
18:04 -9.6 °C -15.3 °C 1012.4 hPa SSW 8 km/h 24.1 km/h 63% 0 mm
18:09 -9.6 °C -15.3 °C 1012.4 hPa SW 16.1 km/h 25.7 km/h 63% 0 mm
18:14 -9.6 °C -15.3 °C 1012.8 hPa SW 12.9 km/h 25.7 km/h 63% 0 mm
18:19 -9.5 °C -15.2 °C 1012.8 hPa SSW 9.7 km/h 25.7 km/h 63% 0 mm
18:24 -9.5 °C -15.2 °C 1012.4 hPa SSW 9.7 km/h 22.5 km/h 63% 0 mm
18:29 -9.5 °C -15.2 °C 1012.4 hPa SSW 9.7 km/h 24.1 km/h 63% 0 mm
18:34 -9.5 °C -15.2 °C 1012.4 hPa SSW 6.4 km/h 24.1 km/h 63% 0 mm
18:39 -9.5 °C -15.2 °C 1012.4 hPa SSW 9.7 km/h 22.5 km/h 63% 0 mm
18:44 -9.4 °C -15.2 °C 1012.1 hPa SSW 14.5 km/h 29 km/h 63% 0 mm
18:49 -9.4 °C -15.2 °C 1012.1 hPa SSW 12.9 km/h 29 km/h 63% 0 mm
18:54 -9.4 °C -15.2 °C 1011.7 hPa SSW 11.3 km/h 25.7 km/h 63% 0 mm
18:59 -9.4 °C -15.1 °C 1012.1 hPa SSW 11.3 km/h 22.5 km/h 63% 0 mm
19:04 -9.3 °C -15.1 °C 1012.1 hPa SW 14.5 km/h 25.7 km/h 63% 0 mm
19:09 -9.3 °C -15.1 °C 1012.1 hPa SSW 11.3 km/h 25.7 km/h 63% 0 mm
19:14 -9.3 °C -15 °C 1012.1 hPa SSW 11.3 km/h 22.5 km/h 63% 0 mm
19:19 -9.3 °C -15 °C 1012.1 hPa SSW 11.3 km/h 22.5 km/h 63% 0 mm
19:24 -9.3 °C -14.8 °C 1011.7 hPa SSW 16.1 km/h 30.6 km/h 64% 0 mm
19:29 -9.3 °C -14.8 °C 1012.1 hPa SW 9.7 km/h 30.6 km/h 64% 0 mm
19:34 -9.3 °C -14.8 °C 1012.1 hPa SSW 11.3 km/h 24.1 km/h 64% 0 mm
19:39 -9.3 °C -14.8 °C 1011.7 hPa SSW 12.9 km/h 29 km/h 64% 0 mm
19:44 -9.2 °C -14.6 °C 1012.1 hPa SW 11.3 km/h 29 km/h 65% 0 mm
19:49 -9.2 °C -14.6 °C 1011.7 hPa SW 16.1 km/h 29 km/h 65% 0 mm
19:54 -9.2 °C -14.6 °C 1011.7 hPa SW 9.7 km/h 27.4 km/h 65% 0 mm
19:59 -9.2 °C -14.6 °C 1011.7 hPa SSW 12.9 km/h 29 km/h 65% 0 mm
20:04 -9.1 °C -14.3 °C 1011.7 hPa SSW 12.9 km/h 29 km/h 66% 0 mm
20:09 -9.1 °C -14.3 °C 1011.4 hPa SSW 11.3 km/h 24.1 km/h 66% 0 mm
20:14 -9.1 °C -14.3 °C 1011.4 hPa SSW 8 km/h 24.1 km/h 66% 0 mm
20:20 -9.1 °C -14.2 °C 1011.4 hPa SSW 11.3 km/h 20.9 km/h 66% 0 mm
20:29 -9 °C -14.2 °C 1011.4 hPa SSW 12.9 km/h 24.1 km/h 66% 0 mm
20:34 -8.9 °C -14.2 °C 1011.4 hPa SSW 11.3 km/h 22.5 km/h 66% 0 mm
20:39 -8.9 °C -14.2 °C 1011.7 hPa SSW 8 km/h 22.5 km/h 66% 0 mm
20:44 -8.9 °C -14.1 °C 1011.4 hPa SSW 14.5 km/h 25.7 km/h 66% 0 mm
20:49 -8.8 °C -14.1 °C 1011.4 hPa SSW 11.3 km/h 25.7 km/h 66% 0 mm
20:54 -8.8 °C -14.1 °C 1011.4 hPa SSW 11.3 km/h 22.5 km/h 66% 0 mm
20:59 -8.8 °C -14.1 °C 1011.4 hPa SSW 12.9 km/h 22.5 km/h 66% 0 mm
21:04 -8.8 °C -14 °C 1011.4 hPa SSW 11.3 km/h 27.4 km/h 66% 0 mm
21:09 -8.8 °C -14 °C 1011.4 hPa SSW 11.3 km/h 27.4 km/h 66% 0 mm
21:14 -8.7 °C -13.9 °C 1011.1 hPa SSW 12.9 km/h 24.1 km/h 66% 0 mm
21:19 -8.7 °C -13.7 °C 1011.1 hPa SSW 12.9 km/h 27.4 km/h 67% 0 mm
21:24 -8.7 °C -13.9 °C 1011.1 hPa SSW 14.5 km/h 27.4 km/h 66% 0 mm
21:30 -8.6 °C -13.6 °C 1011.1 hPa SSW 11.3 km/h 27.4 km/h 67% 0 mm
21:34 -8.6 °C -13.6 °C 1011.1 hPa SSW 14.5 km/h 27.4 km/h 67% 0 mm
21:39 -8.6 °C -13.8 °C 1011.1 hPa SSW 14.5 km/h 27.4 km/h 66% 0 mm
21:44 -8.5 °C -13.6 °C 1010.7 hPa SSW 9.7 km/h 27.4 km/h 67% 0 mm
21:49 -8.5 °C -13.6 °C 1010.7 hPa SSW 12.9 km/h 25.7 km/h 67% 0 mm
21:54 -8.4 °C -13.5 °C 1010.4 hPa SSW 11.3 km/h 25.7 km/h 67% 0 mm
21:59 -8.4 °C -13.5 °C 1010.4 hPa SSW 9.7 km/h 25.7 km/h 67% 0 mm
22:04 -8.4 °C -13.4 °C 1010.4 hPa SSW 9.7 km/h 24.1 km/h 67% 0 mm
22:09 -8.4 °C -13.4 °C 1010.4 hPa SSW 12.9 km/h 22.5 km/h 67% 0 mm
22:14 -8.3 °C -13.4 °C 1010.4 hPa SSW 9.7 km/h 24.1 km/h 67% 0 mm
22:19 -8.3 °C -13.4 °C 1010.4 hPa SSW 11.3 km/h 27.4 km/h 67% 0 mm
22:24 -8.3 °C -13.3 °C 1010.4 hPa SSW 11.3 km/h 27.4 km/h 67% 0 mm
22:29 -8.3 °C -13.3 °C 1010.4 hPa SSW 9.7 km/h 25.7 km/h 67% 0 mm
22:35 -8.2 °C -13.3 °C 1010 hPa SSW 11.3 km/h 25.7 km/h 67% 0 mm
22:44 -8.2 °C -13.2 °C 1010 hPa SW 12.9 km/h 20.9 km/h 67% 0 mm
22:49 -8.1 °C -13.2 °C 1010 hPa SSW 12.9 km/h 20.9 km/h 67% 0 mm
22:54 -8.1 °C -13.3 °C 1010 hPa SSW 14.5 km/h 25.7 km/h 66% 0 mm
22:59 -8 °C -13.2 °C 1010 hPa SSW 9.7 km/h 25.7 km/h 66% 0 mm
23:04 -7.9 °C -13.2 °C 1010 hPa SSW 11.3 km/h 22.5 km/h 66% 0 mm
23:09 -7.9 °C -13.1 °C 1009.7 hPa SW 11.3 km/h 25.7 km/h 66% 0 mm
23:14 -7.8 °C -13.1 °C 1009.7 hPa SSW 11.3 km/h 25.7 km/h 66% 0 mm
23:19 -7.8 °C -13.1 °C 1009.7 hPa SW 9.7 km/h 24.1 km/h 66% 0 mm
23:24 -7.8 °C -13.1 °C 1009.4 hPa SSW 12.9 km/h 30.6 km/h 66% 0 mm
23:29 -7.8 °C -13 °C 1009.4 hPa SSW 12.9 km/h 30.6 km/h 66% 0 mm
23:34 -7.8 °C -13 °C 1009.4 hPa SSW 11.3 km/h 27.4 km/h 66% 0 mm
23:39 -7.7 °C -12.8 °C 1009.4 hPa SSW 11.3 km/h 24.1 km/h 67% 0 mm
23:44 -7.7 °C -12.9 °C 1009.4 hPa SSW 11.3 km/h 25.7 km/h 66% 0 mm
23:49 -7.7 °C -12.8 °C 1009 hPa SSW 11.3 km/h 25.7 km/h 67% 0 mm
23:54 -7.7 °C -12.9 °C 1009 hPa SSW 16.1 km/h 29 km/h 66% 0 mm
23:59 -7.7 °C -12.7 °C 1009 hPa SSW 12.9 km/h 29 km/h 67% 0 mm
Westford Weather
Compliments of Weather Underground

 
 
Current Radar Loop:

Copyright © WestfordWeather.net 2007-2014. All rights reserved.